Time;durP1;ratioP1;P1;durP2;ratioP2;P2;SDS_P1;SDS_P2;PMS_P1;PMS_P2;Temp;Humidity;BMP_temperature;BMP_pressure;BME280_temperature;BME280_humidity;BME280_pressure;Samples;Min_cycle;Max_cycle;Signal;HPM_P1;HPM_P2
2022/12/26 00:01:24;;;;;;;4.97;4.67;;;12.20;99.90;;;;;;5063658;28;20193;-63
2022/12/26 00:03:50;;;;;;;4.73;4.43;;;12.10;99.90;;;;;;5079263;28;20321;-63
2022/12/26 00:06:19;;;;;;;6.10;4.63;;;12.00;99.90;;;;;;5092906;28;20284;-63
2022/12/26 00:08:45;;;;;;;4.73;4.43;;;12.00;99.90;;;;;;5072622;28;20193;-63
2022/12/26 00:11:11;;;;;;;4.37;4.17;;;12.00;99.90;;;;;;5072200;28;20205;-63
2022/12/26 00:13:41;;;;;;;4.77;4.57;;;11.90;99.90;;;;;;5091100;28;20208;-63
2022/12/26 00:16:17;;;;;;;5.00;4.70;;;11.90;99.90;;;;;;5073385;28;20198;-63
2022/12/26 00:18:44;;;;;;;7.03;5.10;;;11.90;99.90;;;;;;5079086;28;20208;-63
2022/12/26 00:21:12;;;;;;;5.00;4.70;;;12.00;99.90;;;;;;5092165;28;20178;-63
2022/12/26 00:23:38;;;;;;;5.83;5.43;;;12.00;99.90;;;;;;5073314;28;20182;-63
2022/12/26 00:26:05;;;;;;;5.03;4.63;;;12.00;99.90;;;;;;5072232;28;20206;-63
2022/12/26 00:28:31;;;;;;;4.93;4.63;;;12.00;99.90;;;;;;5088914;28;20196;-63
2022/12/26 00:30:57;;;;;;;4.60;4.30;;;12.00;99.90;;;;;;5090464;28;20181;-63
2022/12/26 00:33:22;;;;;;;4.63;4.43;;;12.00;99.90;;;;;;5072438;28;20206;-63
2022/12/26 00:35:48;;;;;;;5.03;4.67;;;12.00;99.90;;;;;;5083180;28;20212;-63
2022/12/26 00:38:15;;;;;;;4.80;4.50;;;12.20;99.90;;;;;;5092281;28;20203;-63
2022/12/26 00:40:42;;;;;;;4.83;4.43;;;12.10;99.90;;;;;;5081880;28;20178;-63
2022/12/26 00:43:08;;;;;;;5.10;4.70;;;12.20;99.90;;;;;;5073285;28;20188;-63
2022/12/26 00:45:35;;;;;;;4.67;4.47;;;12.20;99.90;;;;;;5073670;28;20181;-63
2022/12/26 00:48:00;;;;;;;5.20;4.87;;;12.30;99.90;;;;;;5077906;28;20210;-63
2022/12/26 00:50:26;;;;;;;4.77;4.47;;;12.30;99.90;;;;;;5088691;28;20192;-63
2022/12/26 00:52:52;;;;;;;7.60;7.07;;;12.30;99.90;;;;;;5078989;28;20206;-63
2022/12/26 00:55:19;;;;;;;5.37;4.97;;;12.20;99.90;;;;;;5073027;28;20214;-63
2022/12/26 00:57:44;;;;;;;7.67;5.67;;;12.30;99.90;;;;;;5071724;28;20195;-63
2022/12/26 01:00:10;;;;;;;6.40;5.83;;;12.20;99.90;;;;;;5076699;28;20578;-63
2022/12/26 01:02:39;;;;;;;4.83;4.60;;;12.20;99.90;;;;;;5090286;28;20646;-63
2022/12/26 01:05:10;;;;;;;5.80;5.30;;;12.20;99.90;;;;;;5091813;28;20185;-62
2022/12/26 01:07:37;;;;;;;5.73;5.40;;;12.20;99.90;;;;;;5081087;28;20259;-64
2022/12/26 01:10:04;;;;;;;6.63;5.20;;;12.20;99.90;;;;;;5080958;28;20590;-63
2022/12/26 01:12:30;;;;;;;5.87;5.57;;;12.10;99.90;;;;;;5091497;28;20654;-63
2022/12/26 01:14:57;;;;;;;7.27;6.57;;;12.10;99.90;;;;;;5083443;28;20186;-64
2022/12/26 01:17:23;;;;;;;6.07;5.67;;;12.10;99.90;;;;;;5071655;28;20202;-63
2022/12/26 01:19:49;;;;;;;5.20;4.90;;;12.20;99.90;;;;;;5077844;28;20643;-63
2022/12/26 01:22:14;;;;;;;4.97;4.67;;;12.30;99.90;;;;;;5081729;28;20188;-64
2022/12/26 01:24:40;;;;;;;5.27;4.93;;;12.40;99.90;;;;;;5076570;28;20189;-63
2022/12/26 01:27:06;;;;;;;4.97;4.67;;;12.40;99.90;;;;;;5090418;28;20233;-63
2022/12/26 01:29:31;;;;;;;5.10;4.80;;;12.50;99.90;;;;;;5072739;28;20182;-63
2022/12/26 01:31:57;;;;;;;5.00;4.70;;;12.50;99.90;;;;;;5086527;28;20642;-63
2022/12/26 01:34:22;;;;;;;5.80;5.27;;;12.50;99.90;;;;;;5089928;28;20177;-63
2022/12/26 01:36:48;;;;;;;4.70;4.47;;;12.60;99.90;;;;;;5091528;28;20262;-63
2022/12/26 01:39:14;;;;;;;5.33;4.80;;;12.60;99.90;;;;;;5074906;28;20182;-63
2022/12/26 01:41:40;;;;;;;5.23;4.83;;;12.60;99.90;;;;;;5081174;28;20181;-64
2022/12/26 01:44:44;;;;;;;5.27;4.97;;;12.70;99.90;;;;;;5082179;28;20573;-63
2022/12/26 01:47:09;;;;;;;7.53;6.97;;;12.70;99.90;;;;;;5079339;28;20218;-63
2022/12/26 01:49:40;;;;;;;5.30;5.00;;;12.70;99.90;;;;;;5097238;28;20224;-63
2022/12/26 01:52:11;;;;;;;6.00;5.60;;;12.70;99.90;;;;;;5110350;28;20197;-64
2022/12/26 01:54:41;;;;;;;5.27;4.93;;;12.70;99.90;;;;;;5113130;28;20184;-64
2022/12/26 01:57:12;;;;;;;5.00;4.77;;;12.70;99.90;;;;;;5098766;28;20193;-63
2022/12/26 01:59:40;;;;;;;4.73;4.53;;;12.70;99.90;;;;;;5092469;28;20169;-63
2022/12/26 02:02:07;;;;;;;4.97;4.57;;;12.70;99.90;;;;;;5089848;28;20216;-63
2022/12/26 02:07:23;;;;;;;4.80;4.50;;;12.70;99.90;;;;;;5092014;28;20701;-63
2022/12/26 02:09:48;;;;;;;4.90;4.50;;;12.70;99.90;;;;;;5077846;28;20193;-64
2022/12/26 02:12:32;;;;;;;5.30;5.00;;;12.80;99.90;;;;;;5086866;28;20201;-63
2022/12/26 02:14:59;;;;;;;5.63;5.23;;;12.70;99.90;;;;;;5075114;28;20174;-63
2022/12/26 02:17:26;;;;;;;6.00;5.00;;;12.70;99.90;;;;;;5084634;28;20201;-63
2022/12/26 02:19:58;;;;;;;4.30;4.10;;;12.70;99.90;;;;;;5094723;28;20509;-63
2022/12/26 02:23:01;;;;;;;4.40;4.10;;;12.70;99.90;;;;;;5084899;28;20231;-63
2022/12/26 02:26:04;;;;;;;5.00;4.80;;;12.70;99.90;;;;;;5076395;28;20295;-63
2022/12/26 02:29:05;;;;;;;5.50;5.10;;;12.60;99.90;;;;;;5087633;28;20257;-64
2022/12/26 02:31:45;;;;;;;5.47;5.17;;;12.60;99.90;;;;;;5075495;28;20177;-64
2022/12/26 02:34:26;;;;;;;6.13;5.63;;;12.60;99.90;;;;;;5074572;28;20540;-64
2022/12/26 02:37:19;;;;;;;4.73;4.50;;;12.60;99.90;;;;;;5075878;28;20229;-63
2022/12/26 02:39:53;;;;;;;5.60;5.20;;;12.70;99.90;;;;;;5076178;28;20570;-63
2022/12/26 02:42:58;;;;;;;4.97;4.57;;;12.70;99.90;;;;;;5092943;28;20203;-63
2022/12/26 02:48:44;;;;;;;5.23;4.90;;;12.80;99.90;;;;;;5071310;28;20232;-63
2022/12/26 03:14:59;;;;;;;4.93;4.63;;;12.50;99.90;;;;;;5074255;28;20240;-63
2022/12/26 03:17:34;;;;;;;5.07;4.77;;;12.40;99.90;;;;;;5073740;28;20243;-64
2022/12/26 03:20:32;;;;;;;5.37;5.07;;;12.10;99.90;;;;;;5073722;28;20178;-64
2022/12/26 03:23:09;;;;;;;5.27;4.73;;;11.80;99.90;;;;;;5055523;28;20273;-64
2022/12/26 03:28:19;;;;;;;5.03;4.83;;;11.50;99.90;;;;;;5076126;28;20278;-64
2022/12/26 03:30:48;;;;;;;4.57;4.37;;;11.40;99.90;;;;;;5077813;28;20272;-64
2022/12/26 03:36:03;;;;;;;4.80;4.53;;;11.30;99.90;;;;;;5078922;28;20290;-64
2022/12/26 03:38:50;;;;;;;5.10;4.80;;;11.30;99.90;;;;;;5074467;28;20174;-64
2022/12/26 04:19:57;;;;;;;5.83;5.53;;;10.80;99.90;;;;;;5083219;28;20318;-64
2022/12/26 04:45:53;;;;;;;5.90;5.50;;;10.80;99.90;;;;;;4995460;28;20204;-63
2022/12/26 04:51:03;;;;;;;5.77;5.27;;;10.90;99.90;;;;;;5091773;28;20573;-63
2022/12/26 04:53:29;;;;;;;6.03;5.63;;;10.90;99.90;;;;;;5071871;28;20210;-63
2022/12/26 04:55:54;;;;;;;5.17;4.83;;;10.90;99.90;;;;;;5071536;28;20257;-63
2022/12/26 04:58:23;;;;;;;6.23;5.93;;;10.90;99.90;;;;;;5090304;28;20204;-63
2022/12/26 05:00:49;;;;;;;6.20;5.80;;;10.90;99.90;;;;;;5089785;28;20185;-63
2022/12/26 05:11:31;;;;;;;6.43;5.93;;;10.90;99.90;;;;;;5078489;28;20195;-64
2022/12/26 05:13:58;;;;;;;6.00;5.70;;;10.90;99.90;;;;;;5090793;28;20212;-63
2022/12/26 05:30:21;;;;;;;5.40;5.00;;;11.00;99.90;;;;;;5089708;28;20192;-63
2022/12/26 05:35:32;;;;;;;5.53;5.00;;;10.90;99.90;;;;;;5090227;28;20550;-64
2022/12/26 05:37:58;;;;;;;5.10;4.70;;;10.90;99.90;;;;;;5091121;28;20210;-64
2022/12/26 05:40:24;;;;;;;12.73;5.27;;;10.80;99.90;;;;;;5074567;28;20547;-65
2022/12/26 05:42:49;;;;;;;5.27;4.83;;;10.80;99.90;;;;;;5072353;28;20182;-64
2022/12/26 05:45:15;;;;;;;5.27;4.80;;;10.80;99.90;;;;;;5071435;28;20208;-65
2022/12/26 05:47:40;;;;;;;5.70;5.10;;;10.70;99.90;;;;;;5078458;28;20209;-64
2022/12/26 05:50:06;;;;;;;5.20;4.90;;;10.70;99.90;;;;;;5077041;28;20189;-64
2022/12/26 05:52:32;;;;;;;4.70;4.50;;;10.70;99.90;;;;;;5086313;28;20204;-64
2022/12/26 05:54:58;;;;;;;5.03;4.70;;;10.70;99.90;;;;;;5075107;28;20554;-65
2022/12/26 05:57:23;;;;;;;4.50;4.30;;;10.60;99.90;;;;;;5074892;28;20205;-64
2022/12/26 05:59:49;;;;;;;5.33;4.93;;;10.60;99.90;;;;;;5074626;28;20176;-64
2022/12/26 06:02:14;;;;;;;5.60;4.80;;;10.60;99.90;;;;;;5081483;28;20211;-64
2022/12/26 06:04:40;;;;;;;5.00;4.60;;;10.60;99.90;;;;;;5094693;28;20188;-64
2022/12/26 06:07:05;;;;;;;5.40;5.10;;;10.60;99.90;;;;;;5090301;28;20201;-64
2022/12/26 06:09:31;;;;;;;5.83;5.47;;;10.60;99.90;;;;;;5074669;28;20170;-64
2022/12/26 06:11:57;;;;;;;5.20;4.90;;;10.60;99.90;;;;;;5090106;28;20178;-64
2022/12/26 06:14:22;;;;;;;5.20;4.90;;;10.60;99.90;;;;;;5065736;28;20171;-64
2022/12/26 06:16:48;;;;;;;5.00;4.60;;;10.60;99.90;;;;;;5054621;28;20195;-64
2022/12/26 06:19:14;;;;;;;4.90;4.60;;;10.60;99.90;;;;;;5065692;28;20253;-64
2022/12/26 06:21:39;;;;;;;5.03;4.70;;;10.60;99.90;;;;;;5074709;28;20209;-64
2022/12/26 06:24:05;;;;;;;4.97;4.57;;;10.60;99.90;;;;;;5091883;28;20188;-64
2022/12/26 06:26:31;;;;;;;4.83;4.50;;;10.60;99.90;;;;;;5092956;28;20255;-64
2022/12/26 06:28:56;;;;;;;4.73;4.53;;;10.50;99.90;;;;;;5094601;28;20169;-64
2022/12/26 06:31:22;;;;;;;4.97;4.77;;;10.50;99.90;;;;;;5087036;28;20541;-64
2022/12/26 06:33:50;;;;;;;4.60;4.20;;;10.50;99.90;;;;;;5075509;28;20733;-64
2022/12/26 06:36:20;;;;;;;4.70;4.50;;;10.40;99.90;;;;;;5084552;28;20217;-64
2022/12/26 06:38:46;;;;;;;4.60;4.40;;;10.40;99.90;;;;;;5079367;28;20186;-63
2022/12/26 06:41:15;;;;;;;4.90;4.70;;;10.40;99.90;;;;;;5085223;28;20603;-64
2022/12/26 06:43:41;;;;;;;4.93;4.63;;;10.40;99.90;;;;;;5080509;28;20265;-64
2022/12/26 06:46:11;;;;;;;4.60;4.40;;;10.30;99.90;;;;;;5075413;28;20202;-64
2022/12/26 06:48:38;;;;;;;4.90;4.70;;;10.30;99.90;;;;;;5092736;28;20180;-64
2022/12/26 06:51:12;;;;;;;5.27;5.07;;;10.30;99.90;;;;;;5084721;28;20204;-64
2022/12/26 06:53:38;;;;;;;4.80;4.60;;;10.30;99.90;;;;;;5073803;28;20577;-64
2022/12/26 06:56:12;;;;;;;4.87;4.67;;;10.30;99.90;;;;;;5077907;28;20552;-64
2022/12/26 06:58:38;;;;;;;5.07;4.87;;;10.30;99.90;;;;;;5080142;28;20182;-64
2022/12/26 07:01:06;;;;;;;4.77;4.50;;;10.30;99.90;;;;;;5085266;28;20284;-64
2022/12/26 07:03:31;;;;;;;4.80;4.60;;;10.30;99.90;;;;;;5083070;28;20192;-64
2022/12/26 07:06:05;;;;;;;4.70;4.50;;;10.30;99.90;;;;;;5075601;28;20646;-64
2022/12/26 07:08:31;;;;;;;4.97;4.70;;;10.30;99.90;;;;;;5089666;28;20169;-64
2022/12/26 07:10:56;;;;;;;4.30;4.10;;;10.30;99.90;;;;;;5077954;28;20182;-64
2022/12/26 07:13:22;;;;;;;4.30;4.10;;;10.30;99.90;;;;;;5080973;28;20205;-64
2022/12/26 07:15:48;;;;;;;4.60;4.30;;;10.40;99.90;;;;;;5093259;28;20180;-64
2022/12/26 07:18:13;;;;;;;5.03;4.57;;;10.40;99.90;;;;;;5087502;28;20257;-64
2022/12/26 07:20:39;;;;;;;5.10;4.80;;;10.40;99.90;;;;;;5073044;28;20184;-64
2022/12/26 07:23:04;;;;;;;4.50;4.30;;;10.40;99.90;;;;;;5076890;28;20223;-64
2022/12/26 07:25:30;;;;;;;4.33;4.13;;;10.40;99.90;;;;;;5093453;28;20200;-64
2022/12/26 07:27:55;;;;;;;4.83;4.63;;;10.30;99.90;;;;;;5082906;28;20210;-64
2022/12/26 07:30:21;;;;;;;4.60;4.37;;;10.30;99.90;;;;;;5072863;28;20180;-65
2022/12/26 07:32:47;;;;;;;4.77;4.57;;;10.20;99.90;;;;;;5080728;28;20638;-64
2022/12/26 07:35:12;;;;;;;5.03;4.83;;;10.20;99.90;;;;;;5093327;28;20204;-64
2022/12/26 07:37:38;;;;;;;5.47;5.07;;;10.20;99.90;;;;;;5086752;28;20216;-64
2022/12/26 07:40:04;;;;;;;4.90;4.70;;;10.10;99.90;;;;;;5073007;28;20236;-64
2022/12/26 07:42:29;;;;;;;4.70;4.50;;;10.10;99.90;;;;;;5074128;28;20208;-64
2022/12/26 07:44:55;;;;;;;5.17;4.87;;;10.10;99.90;;;;;;5072719;28;20273;-64
2022/12/26 07:47:20;;;;;;;4.63;4.43;;;10.00;99.90;;;;;;5076911;28;20201;-64
2022/12/26 07:49:46;;;;;;;4.73;4.53;;;10.00;99.90;;;;;;5086835;28;20268;-64
2022/12/26 07:52:12;;;;;;;4.50;4.30;;;10.00;99.90;;;;;;5090025;28;20204;-64
2022/12/26 07:54:37;;;;;;;5.20;4.90;;;10.00;99.90;;;;;;5072767;28;20235;-64
2022/12/26 07:57:03;;;;;;;4.80;4.60;;;9.90;99.90;;;;;;5091822;28;20212;-64
2022/12/26 07:59:29;;;;;;;4.37;4.17;;;9.90;99.90;;;;;;5092769;28;20178;-64
2022/12/26 08:01:56;;;;;;;4.40;4.20;;;9.90;99.90;;;;;;5074780;28;20182;-64
2022/12/26 08:04:22;;;;;;;5.13;4.63;;;9.90;99.90;;;;;;5071859;28;20166;-64
2022/12/26 08:06:47;;;;;;;5.27;5.07;;;9.90;99.90;;;;;;5088233;28;20200;-64
2022/12/26 08:09:17;;;;;;;5.30;5.00;;;9.90;99.90;;;;;;5092391;28;20299;-64
2022/12/26 08:11:43;;;;;;;4.57;4.27;;;9.90;99.90;;;;;;5059511;28;20186;-64
2022/12/26 08:14:15;;;;;;;4.43;4.23;;;9.90;99.90;;;;;;5072498;28;20217;-64
2022/12/26 08:16:41;;;;;;;4.60;4.30;;;9.90;99.90;;;;;;5085772;28;20197;-64
2022/12/26 08:19:07;;;;;;;4.70;4.50;;;9.90;99.90;;;;;;5070798;28;20178;-64
2022/12/26 08:21:33;;;;;;;4.93;4.63;;;10.00;99.90;;;;;;5084318;28;20260;-63
2022/12/26 08:23:58;;;;;;;4.40;4.20;;;10.00;99.90;;;;;;5082241;28;20318;-64
2022/12/26 08:26:24;;;;;;;4.37;4.17;;;10.10;99.90;;;;;;5072091;28;20198;-64
2022/12/26 08:28:50;;;;;;;4.70;4.50;;;10.10;99.90;;;;;;5079985;28;20234;-64
2022/12/26 08:31:17;;;;;;;4.90;4.70;;;10.20;99.90;;;;;;5091956;28;20185;-64
2022/12/26 08:33:43;;;;;;;4.40;4.20;;;10.20;99.90;;;;;;5085131;28;20206;-64
2022/12/26 08:36:11;;;;;;;4.60;4.40;;;10.10;99.90;;;;;;5094797;22;20277;-65
2022/12/26 08:38:38;;;;;;;10.47;4.40;;;10.20;99.90;;;;;;5036694;28;20181;-65
2022/12/26 08:41:03;;;;;;;4.30;4.10;;;10.20;99.90;;;;;;5051485;28;20201;-66
2022/12/26 08:43:29;;;;;;;4.00;3.80;;;10.20;99.90;;;;;;5048223;28;20182;-66
2022/12/26 08:46:06;;;;;;;4.23;4.03;;;10.20;99.90;;;;;;5031681;28;20167;-66
2022/12/26 08:48:33;;;;;;;4.50;4.30;;;10.20;99.90;;;;;;5012933;28;20187;-66
2022/12/26 08:51:04;;;;;;;4.50;4.30;;;10.20;99.90;;;;;;5000253;28;20291;-66
2022/12/26 08:53:31;;;;;;;4.30;4.10;;;10.20;99.90;;;;;;4979897;28;20211;-65
2022/12/26 08:55:58;;;;;;;4.97;4.67;;;10.30;99.90;;;;;;5031498;28;20172;-66
2022/12/26 08:58:24;;;;;;;4.43;4.13;;;10.40;99.90;;;;;;5030424;28;20167;-66
2022/12/26 09:00:50;;;;;;;5.37;4.67;;;10.50;99.90;;;;;;5010137;28;20203;-66
2022/12/26 09:03:16;;;;;;;4.40;4.20;;;10.50;99.90;;;;;;5011357;28;20177;-66
2022/12/26 09:05:42;;;;;;;4.80;4.60;;;10.60;99.90;;;;;;5030831;28;20240;-66
2022/12/26 09:08:08;;;;;;;4.30;4.10;;;10.60;99.90;;;;;;5031545;28;20286;-65
2022/12/26 09:10:34;;;;;;;4.50;4.30;;;10.70;99.90;;;;;;5013598;28;20184;-66
2022/12/26 09:12:59;;;;;;;6.03;4.70;;;10.70;99.90;;;;;;5011601;28;20219;-66
2022/12/26 09:15:25;;;;;;;4.70;4.40;;;10.90;99.90;;;;;;5020239;28;20176;-65
2022/12/26 09:17:51;;;;;;;5.00;4.60;;;11.00;99.90;;;;;;5011379;28;20199;-66
2022/12/26 09:20:16;;;;;;;5.83;4.93;;;11.20;99.90;;;;;;5026169;28;20595;-66
2022/12/26 09:22:51;;;;;;;5.03;4.50;;;11.30;99.90;;;;;;5036626;28;20210;-66
2022/12/26 09:25:24;;;;;;;4.67;4.20;;;11.40;99.90;;;;;;5025945;28;20182;-66
2022/12/26 09:27:52;;;;;;;6.33;4.43;;;11.50;99.90;;;;;;5037684;28;20191;-66
2022/12/26 09:30:19;;;;;;;5.00;4.70;;;11.50;99.90;;;;;;5024020;28;20199;-66
2022/12/26 09:32:44;;;;;;;5.50;4.53;;;11.50;99.90;;;;;;5017954;28;20253;-66
2022/12/26 09:35:10;;;;;;;5.00;4.67;;;11.50;99.90;;;;;;5029834;28;20187;-66
2022/12/26 09:37:35;;;;;;;4.40;4.20;;;11.40;99.90;;;;;;5037745;28;20211;-66
2022/12/26 09:40:03;;;;;;;5.00;4.60;;;11.50;99.90;;;;;;5027150;28;20210;-66
2022/12/26 09:42:42;;;;;;;4.20;4.00;;;11.40;99.90;;;;;;5023894;28;20221;-66
2022/12/26 09:45:14;;;;;;;4.43;4.20;;;11.40;99.90;;;;;;5037995;28;20175;-66
2022/12/26 09:48:05;;;;;;;4.93;4.67;;;11.40;99.90;;;;;;5030361;28;20200;-65
2022/12/26 09:50:34;;;;;;;6.07;5.37;;;11.40;99.90;;;;;;5017798;28;20592;-66
2022/12/26 09:53:11;;;;;;;4.80;4.50;;;11.50;99.90;;;;;;5027038;28;20730;-66
2022/12/26 09:55:47;;;;;;;5.37;4.93;;;11.50;99.90;;;;;;5015777;28;20183;-66
2022/12/26 09:58:22;;;;;;;5.93;4.60;;;11.60;99.90;;;;;;5019547;28;20206;-66
2022/12/26 10:01:06;;;;;;;8.27;4.97;;;11.70;99.90;;;;;;5037430;28;20175;-66
2022/12/26 10:03:38;;;;;;;8.73;7.50;;;11.80;99.90;;;;;;5024517;28;20183;-65
2022/12/26 10:06:17;;;;;;;5.47;5.07;;;11.90;99.90;;;;;;5017630;28;20657;-66
2022/12/26 10:09:11;;;;;;;16.23;9.20;;;11.90;99.90;;;;;;5031050;28;20560;-66
2022/12/26 10:11:48;;;;;;;16.40;10.90;;;12.00;99.90;;;;;;5036964;28;20690;-65
2022/12/26 10:14:19;;;;;;;7.63;6.97;;;12.20;99.90;;;;;;5019711;28;20729;-66
2022/12/26 10:17:04;;;;;;;10.30;7.77;;;12.20;99.90;;;;;;5035681;28;20203;-66
2022/12/26 10:20:01;;;;;;;6.70;4.87;;;12.30;99.90;;;;;;5022481;28;20287;-65
2022/12/26 10:22:45;;;;;;;4.53;4.33;;;12.20;99.90;;;;;;5006063;28;20196;-66
2022/12/26 10:25:23;;;;;;;5.27;4.87;;;12.10;99.90;;;;;;5017818;28;20678;-66
2022/12/26 10:27:50;;;;;;;5.23;4.90;;;12.10;99.90;;;;;;5017412;28;20302;-65
2022/12/26 10:30:34;;;;;;;4.83;4.53;;;12.00;99.90;;;;;;5000062;28;20216;-65
2022/12/26 10:33:15;;;;;;;5.77;4.67;;;12.00;99.90;;;;;;5028285;28;20203;-66
2022/12/26 10:35:44;;;;;;;5.27;5.00;;;12.00;99.90;;;;;;5034414;28;20267;-65
2022/12/26 10:38:14;;;;;;;6.00;4.50;;;11.90;99.90;;;;;;5016396;28;20246;-65
2022/12/26 10:40:43;;;;;;;4.63;4.43;;;11.90;99.90;;;;;;5012855;28;20168;-66
2022/12/26 10:43:17;;;;;;;6.43;4.50;;;11.90;99.90;;;;;;5030875;28;20194;-65
2022/12/26 10:46:04;;;;;;;4.67;4.37;;;11.80;99.90;;;;;;5034110;28;20255;-65
2022/12/26 10:48:30;;;;;;;4.57;4.27;;;11.80;99.90;;;;;;5033547;28;20648;-65
2022/12/26 10:50:55;;;;;;;4.33;4.13;;;11.90;99.90;;;;;;5033649;28;20171;-65
2022/12/26 10:53:21;;;;;;;4.73;4.43;;;11.90;99.90;;;;;;5032212;28;20583;-65
2022/12/26 10:55:46;;;;;;;4.67;4.27;;;12.00;99.90;;;;;;5033859;28;20164;-65
2022/12/26 10:58:18;;;;;;;6.10;5.80;;;12.10;99.90;;;;;;5018016;28;20200;-65
2022/12/26 11:00:44;;;;;;;5.30;5.00;;;12.20;99.90;;;;;;5014628;28;20649;-65
2022/12/26 11:03:20;;;;;;;4.93;4.57;;;12.30;99.90;;;;;;4996629;28;20181;-65
2022/12/26 11:05:47;;;;;;;4.10;3.73;;;12.40;99.90;;;;;;5016757;28;20183;-65
2022/12/26 11:08:25;;;;;;;4.57;4.37;;;12.30;99.90;;;;;;5034654;28;20542;-65
2022/12/26 11:11:06;;;;;;;4.63;4.23;;;12.30;99.90;;;;;;5034235;28;20187;-66
2022/12/26 11:13:37;;;;;;;4.40;4.20;;;12.10;99.90;;;;;;5036570;28;20209;-65
2022/12/26 11:16:03;;;;;;;7.13;4.60;;;12.10;99.90;;;;;;5020711;28;20180;-65
2022/12/26 11:18:49;;;;;;;3.97;3.77;;;12.00;99.90;;;;;;5013537;28;20177;-65
2022/12/26 11:21:18;;;;;;;4.20;4.00;;;12.00;99.90;;;;;;5014570;28;20176;-65
2022/12/26 11:23:45;;;;;;;4.70;4.50;;;12.10;99.90;;;;;;5013149;28;20234;-64
2022/12/26 11:26:25;;;;;;;4.60;4.40;;;12.20;99.90;;;;;;5014666;28;20723;-65
2022/12/26 11:29:09;;;;;;;4.77;4.47;;;12.20;99.90;;;;;;5013548;28;20163;-65
2022/12/26 11:31:34;;;;;;;4.13;3.70;;;12.20;99.90;;;;;;5028536;28;20187;-64
2022/12/26 11:34:06;;;;;;;4.00;3.80;;;12.20;99.90;;;;;;5032251;28;20301;-65
2022/12/26 11:36:33;;;;;;;4.30;4.10;;;12.10;99.90;;;;;;5023977;28;20301;-64
2022/12/26 11:39:05;;;;;;;4.90;4.70;;;12.10;99.90;;;;;;5033041;28;20250;-65
2022/12/26 11:41:33;;;;;;;4.60;4.40;;;12.10;99.90;;;;;;5017933;28;20318;-65
2022/12/26 11:44:22;;;;;;;4.80;4.40;;;12.10;99.90;;;;;;5012636;28;20270;-65
2022/12/26 11:46:54;;;;;;;5.60;5.10;;;12.20;99.90;;;;;;5019152;28;20207;-65
2022/12/26 11:49:31;;;;;;;6.23;5.23;;;12.40;99.90;;;;;;5012928;28;20569;-64
2022/12/26 11:51:58;;;;;;;4.20;4.00;;;12.60;99.90;;;;;;5030064;28;20175;-65
2022/12/26 11:54:29;;;;;;;4.80;4.60;;;12.50;99.90;;;;;;5030991;28;20235;-65
2022/12/26 11:57:13;;;;;;;4.90;4.70;;;12.50;99.90;;;;;;5032677;28;20192;-65
2022/12/26 11:59:39;;;;;;;4.93;4.63;;;12.40;99.90;;;;;;5019076;28;20216;-64
2022/12/26 12:02:24;;;;;;;11.00;10.23;;;12.30;99.90;;;;;;5012795;28;20199;-65
2022/12/26 12:04:53;;;;;;;9.20;8.80;;;12.10;99.90;;;;;;5026494;28;20211;-65
2022/12/26 12:07:37;;;;;;;5.27;4.80;;;12.10;99.90;;;;;;5032624;28;20195;-65
2022/12/26 12:10:22;;;;;;;5.90;4.93;;;12.00;99.90;;;;;;5023238;28;20190;-65
2022/12/26 12:12:57;;;;;;;5.20;4.93;;;12.00;99.90;;;;;;5032283;28;20191;-65
2022/12/26 12:15:30;;;;;;;20.00;18.97;;;12.00;99.90;;;;;;5013491;28;20222;-65
2022/12/26 12:18:05;;;;;;;30.53;29.20;;;11.90;99.90;;;;;;5012424;28;20565;-65
2022/12/26 12:20:36;;;;;;;12.00;11.40;;;11.90;99.90;;;;;;5013379;28;20620;-65
2022/12/26 12:23:34;;;;;;;4.57;4.37;;;11.90;99.90;;;;;;5012511;28;20569;-65
2022/12/26 12:26:02;;;;;;;4.60;4.40;;;11.80;99.90;;;;;;5000863;28;20596;-65
2022/12/26 12:28:44;;;;;;;4.67;4.47;;;11.70;99.90;;;;;;5012304;28;20172;-65
2022/12/26 12:31:25;;;;;;;5.03;4.77;;;11.70;99.90;;;;;;4992599;28;20605;-65
2022/12/26 12:34:03;;;;;;;5.50;5.10;;;11.70;99.90;;;;;;4998100;28;20290;-64
2022/12/26 12:36:51;;;;;;;4.60;4.40;;;11.70;99.90;;;;;;5029350;28;20202;-65
2022/12/26 12:39:24;;;;;;;4.77;4.50;;;11.60;99.90;;;;;;5011793;28;20172;-65
2022/12/26 12:42:12;;;;;;;4.30;4.10;;;11.70;99.90;;;;;;5000172;28;20199;-64
2022/12/26 12:45:14;;;;;;;4.90;4.50;;;11.70;99.90;;;;;;5012335;28;20176;-64
2022/12/26 12:48:03;;;;;;;5.60;5.20;;;11.70;99.90;;;;;;5022601;28;20675;-65
2022/12/26 12:50:40;;;;;;;5.17;4.97;;;11.70;99.90;;;;;;5031517;28;20210;-65
2022/12/26 12:53:17;;;;;;;4.90;4.60;;;11.70;99.90;;;;;;5017698;28;20207;-65
2022/12/26 12:55:54;;;;;;;4.73;4.43;;;11.70;99.90;;;;;;5011217;28;20588;-64
2022/12/26 12:58:40;;;;;;;5.20;4.80;;;11.80;99.90;;;;;;5026960;28;20214;-64
2022/12/26 13:01:14;;;;;;;4.67;4.47;;;11.90;99.90;;;;;;5031323;28;20167;-64
2022/12/26 13:03:53;;;;;;;4.20;4.00;;;11.90;99.90;;;;;;5013958;28;20315;-65
2022/12/26 13:06:28;;;;;;;4.60;4.20;;;11.80;99.90;;;;;;4994203;28;20184;-65
2022/12/26 13:09:12;;;;;;;7.60;4.60;;;11.70;99.90;;;;;;5030536;28;20220;-64
2022/12/26 13:11:54;;;;;;;6.53;6.23;;;11.60;99.90;;;;;;5031430;28;20182;-64
2022/12/26 13:14:45;;;;;;;5.30;4.83;;;11.60;99.90;;;;;;4997136;28;20618;-64
2022/12/26 13:17:19;;;;;;;10.13;9.63;;;11.60;99.90;;;;;;4982041;28;20191;-65
2022/12/26 13:19:49;;;;;;;6.13;5.87;;;11.40;99.90;;;;;;5031035;28;20175;-65
2022/12/26 13:24:22;;;;;;;4.50;4.30;;;11.00;99.90;;;;;;5022760;28;20180;-65
2022/12/26 13:25:17;;;;;;;4.80;4.27;;;10.50;99.90;;;;;;5017719;28;20172;-65
2022/12/26 13:27:45;;;;;;;6.23;5.93;;;10.10;99.90;;;;;;5031620;28;20668;-65
2022/12/26 13:30:14;;;;;;;6.03;5.73;;;9.90;99.90;;;;;;5025230;28;20291;-65
2022/12/26 13:32:40;;;;;;;6.07;5.87;;;9.80;99.90;;;;;;5011426;28;20203;-65
2022/12/26 13:35:05;;;;;;;7.10;6.80;;;9.80;99.90;;;;;;5015549;28;20183;-66
2022/12/26 13:37:34;;;;;;;5.67;5.47;;;9.80;99.90;;;;;;5031131;28;20206;-65
2022/12/26 13:40:02;;;;;;;6.03;5.43;;;9.70;99.90;;;;;;5018918;28;20234;-65
2022/12/26 13:45:34;;;;;;;5.60;5.30;;;9.70;99.90;;;;;;5026199;28;20190;-65
2022/12/26 13:48:01;;;;;;;4.87;4.57;;;9.70;99.90;;;;;;4993034;28;20215;-66
2022/12/26 13:51:04;;;;;;;5.60;5.30;;;9.70;99.90;;;;;;5019824;28;20183;-67
2022/12/26 13:53:40;;;;;;;13.23;5.10;;;9.60;99.90;;;;;;5029526;28;20199;-65
2022/12/26 13:56:32;;;;;;;6.83;6.30;;;9.40;99.90;;;;;;5031165;28;20179;-66
2022/12/26 13:59:06;;;;;;;5.83;5.33;;;9.30;99.90;;;;;;5018719;28;20184;-66
2022/12/26 14:01:53;;;;;;;5.77;5.47;;;9.20;99.90;;;;;;5011239;28;20255;-67
2022/12/26 14:04:39;;;;;;;6.30;6.00;;;9.00;99.90;;;;;;5024754;28;20184;-66
2022/12/26 14:07:23;;;;;;;7.60;7.20;;;8.90;99.90;;;;;;5032270;28;20294;-65
2022/12/26 14:09:58;;;;;;;6.13;5.73;;;8.80;99.90;;;;;;5016383;28;20654;-66
2022/12/26 14:12:29;;;;;;;5.20;4.97;;;8.70;99.90;;;;;;5014779;28;20279;-66
2022/12/26 14:15:34;;;;;;;6.33;5.73;;;8.60;99.90;;;;;;5033100;28;20585;-66
2022/12/26 14:18:35;;;;;;;6.43;6.10;;;8.60;99.90;;;;;;5032704;28;20594;-65
2022/12/26 14:21:24;;;;;;;5.87;5.47;;;8.60;99.90;;;;;;5005452;28;20537;-65
2022/12/26 14:24:21;;;;;;;5.87;5.50;;;8.50;99.90;;;;;;5015091;28;20362;-66
2022/12/26 14:27:31;;;;;;;15.77;7.43;;;8.50;99.90;;;;;;5020068;28;20593;-66
2022/12/26 14:30:12;;;;;;;9.53;7.70;;;8.50;99.90;;;;;;5018986;28;20668;-66
2022/12/26 14:32:49;;;;;;;6.13;5.83;;;8.40;99.90;;;;;;5015811;28;20325;-66
2022/12/26 14:35:32;;;;;;;5.47;5.17;;;8.40;99.90;;;;;;5032843;28;20183;-65
2022/12/26 14:38:01;;;;;;;5.30;5.10;;;8.30;99.90;;;;;;5091422;22;20313;-67
2022/12/26 14:40:34;;;;;;;6.90;6.53;;;8.30;99.90;;;;;;5087916;28;20260;-68
2022/12/26 14:43:12;;;;;;;5.70;5.40;;;8.20;99.90;;;;;;5094319;28;20186;-68
2022/12/26 14:45:45;;;;;;;5.40;5.10;;;8.20;99.90;;;;;;5095037;28;20644;-68
2022/12/26 14:48:17;;;;;;;5.00;4.80;;;8.20;99.90;;;;;;5082904;28;20190;-67
2022/12/26 14:50:48;;;;;;;5.47;5.27;;;8.20;99.90;;;;;;5074403;28;20175;-68
2022/12/26 14:53:26;;;;;;;5.67;5.37;;;8.30;99.90;;;;;;5069921;28;20202;-67
2022/12/26 14:56:19;;;;;;;5.60;5.30;;;8.30;99.90;;;;;;5073886;28;20583;-66
2022/12/26 14:58:45;;;;;;;6.40;6.10;;;8.30;99.90;;;;;;5074580;28;20177;-66
2022/12/26 15:01:14;;;;;;;6.03;5.63;;;8.30;99.90;;;;;;5069515;28;20177;-67
2022/12/26 15:03:55;;;;;;;5.00;4.70;;;8.30;99.90;;;;;;5054478;28;20188;-67
2022/12/26 15:06:20;;;;;;;5.93;5.43;;;8.30;99.90;;;;;;5070187;28;20187;-67
2022/12/26 15:08:49;;;;;;;6.33;5.70;;;8.30;99.90;;;;;;5067443;28;20204;-67
2022/12/26 15:11:27;;;;;;;5.60;5.40;;;8.30;91.10;;;;;;5071667;28;20182;-67
2022/12/26 15:14:18;;;;;;;6.30;5.90;;;8.30;98.00;;;;;;5069078;28;20209;-67
2022/12/26 15:16:50;;;;;;;5.80;5.50;;;8.30;76.30;;;;;;5065916;28;20742;-67
2022/12/26 15:19:53;;;;;;;5.43;5.23;;;8.30;47.20;;;;;;5066112;28;20178;-66
2022/12/26 15:22:54;;;;;;;5.93;5.43;;;8.30;37.00;;;;;;5046504;28;20672;-67